Time;durP1;ratioP1;P1;durP2;ratioP2;P2;SDS_P1;SDS_P2;PMS_P1;PMS_P2;Temp;Humidity;BMP_temperature;BMP_pressure;BME280_temperature;BME280_humidity;BME280_pressure;Samples;Min_cycle;Max_cycle;Signal;HPM_P1;HPM_P2
2022/08/09 00:00:24;;;;;;;1.10;1.00;;;;;;;;;;8358587;28;20377;-58
2022/08/09 00:04:24;;;;;;;1.77;1.30;;;;;;;;;;8360602;28;20024;-58
2022/08/09 00:08:25;;;;;;;3.75;1.17;;;;;;;;;;8362323;28;20036;-58
2022/08/09 00:12:25;;;;;;;2.45;1.30;;;;;;;;;;8364411;28;20033;-58
2022/08/09 00:16:25;;;;;;;1.20;1.10;;;;;;;;;;8362475;28;20138;-59
2022/08/09 00:20:25;;;;;;;1.20;1.00;;;;;;;;;;8362634;28;20058;-58
2022/08/09 00:24:25;;;;;;;1.30;1.20;;;;;;;;;;8364842;28;20070;-58
2022/08/09 00:28:26;;;;;;;1.50;1.25;;;;;;;;;;8361684;28;20400;-58
2022/08/09 00:32:26;;;;;;;2.25;1.10;;;;;;;;;;8362850;28;20036;-58
2022/08/09 00:36:26;;;;;;;2.15;1.15;;;;;;;;;;8364715;28;20039;-58
2022/08/09 00:40:26;;;;;;;1.77;1.10;;;;;;;;;;8363103;28;20489;-60
2022/08/09 00:44:27;;;;;;;1.80;1.20;;;;;;;;;;8365563;28;20580;-58
2022/08/09 00:48:27;;;;;;;8.30;1.20;;;;;;;;;;8363265;28;20098;-58
2022/08/09 00:52:29;;;;;;;1.90;1.25;;;;;;;;;;8364956;28;20021;-58
2022/08/09 00:56:29;;;;;;;2.67;1.17;;;;;;;;;;8360901;28;20919;-58
2022/08/09 01:00:30;;;;;;;2.10;1.25;;;;;;;;;;8360655;28;20052;-58
2022/08/09 01:04:36;;;;;;;3.17;1.30;;;;;;;;;;8363655;28;20139;-58
2022/08/09 01:08:51;;;;;;;1.52;1.38;;;;;;;;;;8362429;28;20243;-58
2022/08/09 01:13:03;;;;;;;4.53;1.52;;;;;;;;;;8363771;28;20025;-58
2022/08/09 01:17:08;;;;;;;2.42;1.10;;;;;;;;;;8369382;28;20025;-58
2022/08/09 01:21:27;;;;;;;1.38;1.00;;;;;;;;;;8359368;28;20029;-58
2022/08/09 01:25:46;;;;;;;2.45;1.13;;;;;;;;;;8367357;28;20048;-59
2022/08/09 01:29:58;;;;;;;2.10;1.20;;;;;;;;;;8372752;28;20032;-59
2022/08/09 01:33:59;;;;;;;4.07;1.30;;;;;;;;;;8377215;28;20040;-59
2022/08/09 01:38:03;;;;;;;1.90;1.20;;;;;;;;;;8378085;28;20690;-58
2022/08/09 01:42:04;;;;;;;3.95;1.40;;;;;;;;;;8375554;28;20963;-59
2022/08/09 01:46:05;;;;;;;1.20;1.10;;;;;;;;;;8370748;28;20072;-58
2022/08/09 01:50:06;;;;;;;1.30;1.20;;;;;;;;;;8369872;28;20027;-62
2022/08/09 01:54:07;;;;;;;2.78;1.20;;;;;;;;;;8363213;28;20021;-59
2022/08/09 01:58:08;;;;;;;1.90;1.35;;;;;;;;;;8360724;28;20135;-58
2022/08/09 02:02:09;;;;;;;1.25;1.13;;;;;;;;;;8361665;28;20094;-58
2022/08/09 02:06:09;;;;;;;1.67;1.20;;;;;;;;;;8360415;28;20542;-58
2022/08/09 02:10:12;;;;;;;2.10;1.20;;;;;;;;;;8366654;28;20700;-58
2022/08/09 02:14:14;;;;;;;1.88;1.40;;;;;;;;;;8369320;28;20075;-59
2022/08/09 02:18:15;;;;;;;2.70;1.63;;;;;;;;;;8357978;28;20495;-60
2022/08/09 02:22:19;;;;;;;2.00;1.27;;;;;;;;;;8375035;28;20646;-58
2022/08/09 02:26:19;;;;;;;2.80;1.40;;;;;;;;;;8375351;28;21648;-59
2022/08/09 02:30:20;;;;;;;1.83;1.30;;;;;;;;;;8373934;28;20538;-59
2022/08/09 02:34:22;;;;;;;2.58;1.33;;;;;;;;;;8376875;28;20311;-58
2022/08/09 02:38:26;;;;;;;5.03;1.45;;;;;;;;;;8375096;28;20027;-59
2022/08/09 02:42:26;;;;;;;;;;;;;;;;;;8376548;28;20031;-59
2022/08/09 02:46:28;;;;;;;2.95;1.50;;;;;;;;;;8374938;28;19995;-58
2022/08/09 02:50:32;;;;;;;1.40;1.30;;;;;;;;;;8364457;28;20179;-58
2022/08/09 02:54:32;;;;;;;2.45;1.40;;;;;;;;;;8375676;28;20497;-59
2022/08/09 02:58:33;;;;;;;5.70;1.35;;;;;;;;;;8372593;28;20357;-58
2022/08/09 03:02:36;;;;;;;1.35;1.15;;;;;;;;;;8375152;28;20036;-58
2022/08/09 03:06:36;;;;;;;2.00;1.15;;;;;;;;;;8376900;28;20148;-58
2022/08/09 03:10:40;;;;;;;2.70;1.15;;;;;;;;;;8378468;28;20033;-58
2022/08/09 03:14:42;;;;;;;1.63;1.30;;;;;;;;;;8374527;28;20037;-59
2022/08/09 03:18:43;;;;;;;2.42;1.45;;;;;;;;;;8376153;28;20094;-58
2022/08/09 03:22:45;;;;;;;1.40;1.30;;;;;;;;;;8374422;28;20028;-58
2022/08/09 03:26:46;;;;;;;1.75;1.23;;;;;;;;;;8374588;28;20274;-58
2022/08/09 03:30:47;;;;;;;1.60;1.23;;;;;;;;;;8376578;28;20036;-59
2022/08/09 03:34:47;;;;;;;1.30;1.20;;;;;;;;;;8373511;28;20028;-59
2022/08/09 03:38:48;;;;;;;2.88;1.10;;;;;;;;;;8374642;28;20497;-57
2022/08/09 03:42:48;;;;;;;3.30;1.42;;;;;;;;;;8364671;28;20067;-59
2022/08/09 03:46:48;;;;;;;2.92;1.30;;;;;;;;;;8369938;28;20138;-57
2022/08/09 03:50:50;;;;;;;2.33;1.40;;;;;;;;;;8368727;28;20033;-58
2022/08/09 03:54:51;;;;;;;1.95;1.38;;;;;;;;;;8371791;28;20470;-57
2022/08/09 03:58:51;;;;;;;3.22;1.35;;;;;;;;;;8366897;28;20025;-58
2022/08/09 04:02:52;;;;;;;1.63;1.40;;;;;;;;;;8359462;28;20149;-59
2022/08/09 04:06:53;;;;;;;4.95;1.30;;;;;;;;;;8364939;28;20028;-58
2022/08/09 04:10:53;;;;;;;2.90;1.30;;;;;;;;;;8368950;28;20532;-57
2022/08/09 04:14:53;;;;;;;2.92;1.40;;;;;;;;;;8366025;28;20278;-58
2022/08/09 04:18:53;;;;;;;3.75;1.58;;;;;;;;;;8365958;28;20097;-59
2022/08/09 04:22:53;;;;;;;3.08;1.35;;;;;;;;;;8367737;28;20096;-58
2022/08/09 04:26:54;;;;;;;3.92;1.30;;;;;;;;;;8365798;28;20032;-58
2022/08/09 04:30:54;;;;;;;2.90;1.50;;;;;;;;;;8357346;28;20032;-58
2022/08/09 04:34:56;;;;;;;1.40;1.23;;;;;;;;;;8359529;28;20039;-58
2022/08/09 04:38:57;;;;;;;3.90;1.35;;;;;;;;;;8363966;28;20518;-59
2022/08/09 04:42:57;;;;;;;1.40;1.30;;;;;;;;;;8375337;28;20008;-58
2022/08/09 04:46:58;;;;;;;1.73;1.58;;;;;;;;;;8370642;28;20090;-58
2022/08/09 04:50:58;;;;;;;2.88;1.55;;;;;;;;;;8365030;28;20139;-58
2022/08/09 04:54:59;;;;;;;2.33;1.70;;;;;;;;;;8376324;28;20028;-58
2022/08/09 04:58:59;;;;;;;5.25;1.30;;;;;;;;;;8376630;28;20024;-58
2022/08/09 05:03:00;;;;;;;1.95;1.55;;;;;;;;;;8363536;28;20154;-58
2022/08/09 05:07:01;;;;;;;2.85;1.45;;;;;;;;;;8369069;28;20500;-57
2022/08/09 05:11:01;;;;;;;4.55;1.52;;;;;;;;;;8380234;28;20329;-58
2022/08/09 05:15:02;;;;;;;1.50;1.40;;;;;;;;;;8380755;28;20066;-58
2022/08/09 05:19:02;;;;;;;3.35;1.40;;;;;;;;;;8378219;28;20048;-60
2022/08/09 05:23:03;;;;;;;3.85;1.55;;;;;;;;;;8378860;28;20024;-58
2022/08/09 05:27:03;;;;;;;2.60;1.50;;;;;;;;;;8377490;28;20632;-59
2022/08/09 05:31:03;;;;;;;3.07;1.40;;;;;;;;;;8380242;28;20056;-58
2022/08/09 05:35:04;;;;;;;1.70;1.60;;;;;;;;;;8380486;28;20703;-58
2022/08/09 05:39:04;;;;;;;3.33;1.70;;;;;;;;;;8377615;28;20016;-58
2022/08/09 05:43:06;;;;;;;4.53;1.60;;;;;;;;;;8376970;28;20099;-58
2022/08/09 05:47:06;;;;;;;2.35;1.60;;;;;;;;;;8380720;28;20078;-59
2022/08/09 05:51:06;;;;;;;6.85;1.88;;;;;;;;;;8381303;28;20017;-58
2022/08/09 05:55:07;;;;;;;4.28;1.75;;;;;;;;;;8379630;28;20032;-58
2022/08/09 05:59:07;;;;;;;2.38;1.77;;;;;;;;;;8376106;28;20374;-58
2022/08/09 06:03:08;;;;;;;3.28;2.13;;;;;;;;;;8372393;28;20071;-60
2022/08/09 06:07:08;;;;;;;5.47;1.70;;;;;;;;;;8363234;28;20041;-59
2022/08/09 06:11:08;;;;;;;2.47;1.90;;;;;;;;;;8373646;28;20032;-58
2022/08/09 06:15:09;;;;;;;2.83;1.63;;;;;;;;;;8377990;28;20033;-60
2022/08/09 06:19:09;;;;;;;3.05;1.70;;;;;;;;;;8370851;28;20060;-58
2022/08/09 06:23:09;;;;;;;4.97;1.63;;;;;;;;;;8371007;28;20032;-59
2022/08/09 06:27:09;;;;;;;2.40;1.70;;;;;;;;;;8369685;28;20114;-59
2022/08/09 06:31:10;;;;;;;2.60;1.50;;;;;;;;;;8367267;28;20081;-59
2022/08/09 06:35:10;;;;;;;1.50;1.40;;;;;;;;;;8368890;28;20302;-59
2022/08/09 06:39:11;;;;;;;4.00;1.45;;;;;;;;;;8369679;28;20052;-60
2022/08/09 06:43:12;;;;;;;2.85;1.60;;;;;;;;;;8369983;28;20075;-59
2022/08/09 06:47:12;;;;;;;4.03;1.60;;;;;;;;;;8371651;28;20052;-60
2022/08/09 06:51:12;;;;;;;4.67;1.57;;;;;;;;;;8374609;28;20476;-59
2022/08/09 06:55:14;;;;;;;3.75;1.48;;;;;;;;;;8379109;28;20142;-60
2022/08/09 06:59:15;;;;;;;2.15;1.70;;;;;;;;;;8373959;28;20069;-60
2022/08/09 07:03:15;;;;;;;3.13;1.77;;;;;;;;;;8390038;28;20037;-60
2022/08/09 07:07:16;;;;;;;2.63;1.70;;;;;;;;;;8378930;28;20025;-59
2022/08/09 07:11:16;;;;;;;1.85;1.50;;;;;;;;;;8373410;28;20380;-59
2022/08/09 07:15:16;;;;;;;3.88;1.60;;;;;;;;;;8373896;28;20032;-60
2022/08/09 07:19:17;;;;;;;1.58;1.38;;;;;;;;;;8377780;28;20157;-60
2022/08/09 07:23:17;;;;;;;3.87;1.67;;;;;;;;;;8379696;28;20025;-60
2022/08/09 07:27:19;;;;;;;5.57;1.70;;;;;;;;;;8379121;28;20060;-60
2022/08/09 07:31:19;;;;;;;5.13;1.95;;;;;;;;;;8379342;28;20070;-60
2022/08/09 07:35:19;;;;;;;2.97;1.80;;;;;;;;;;8379876;28;20020;-60
2022/08/09 07:39:20;;;;;;;4.83;1.60;;;;;;;;;;8378069;28;20020;-59
2022/08/09 07:43:20;;;;;;;3.92;1.63;;;;;;;;;;8379245;28;20043;-60
2022/08/09 07:47:21;;;;;;;4.95;1.60;;;;;;;;;;8376722;28;20037;-59
2022/08/09 07:51:21;;;;;;;2.75;1.60;;;;;;;;;;8375370;28;20213;-61
2022/08/09 07:55:22;;;;;;;6.40;1.50;;;;;;;;;;8365902;28;20036;-60
2022/08/09 07:59:22;;;;;;;5.25;1.52;;;;;;;;;;8367295;28;20028;-60
2022/08/09 08:03:22;;;;;;;2.95;1.58;;;;;;;;;;8365761;28;20037;-60
2022/08/09 08:07:22;;;;;;;1.83;1.60;;;;;;;;;;8365554;28;20043;-60
2022/08/09 08:11:23;;;;;;;4.13;1.60;;;;;;;;;;8370574;28;20035;-60
2022/08/09 08:15:23;;;;;;;4.80;1.60;;;;;;;;;;8374018;28;20044;-60
2022/08/09 08:19:23;;;;;;;1.57;1.37;;;;;;;;;;8364801;28;20114;-60
2022/08/09 08:23:24;;;;;;;3.65;1.50;;;;;;;;;;8367333;28;20973;-60
2022/08/09 08:27:24;;;;;;;5.50;1.40;;;;;;;;;;8364405;28;20078;-60
2022/08/09 08:31:25;;;;;;;1.63;1.53;;;;;;;;;;8365975;28;20037;-60
2022/08/09 08:35:25;;;;;;;2.63;1.50;;;;;;;;;;8365419;28;20036;-60
2022/08/09 08:39:42;;;;;;;4.00;1.60;;;;;;;;;;8372410;28;20690;-60
2022/08/09 08:43:43;;;;;;;1.98;1.48;;;;;;;;;;8365494;28;20064;-60
2022/08/09 08:47:43;;;;;;;2.77;1.60;;;;;;;;;;8365066;28;20041;-60
2022/08/09 08:51:43;;;;;;;3.07;1.53;;;;;;;;;;8368280;28;20483;-60
2022/08/09 08:55:44;;;;;;;4.10;1.63;;;;;;;;;;8366202;28;20032;-60
2022/08/09 08:59:44;;;;;;;3.20;1.60;;;;;;;;;;8368241;28;20386;-60
2022/08/09 09:03:44;;;;;;;4.57;1.65;;;;;;;;;;8361326;28;20029;-60
2022/08/09 09:07:49;;;;;;;2.50;1.40;;;;;;;;;;8366328;28;20182;-60
2022/08/09 09:11:50;;;;;;;2.53;1.60;;;;;;;;;;8366593;28;20024;-61
2022/08/09 09:15:50;;;;;;;2.97;1.50;;;;;;;;;;8368041;28;20039;-60
2022/08/09 09:19:52;;;;;;;3.30;1.60;;;;;;;;;;8367263;28;20928;-60
2022/08/09 09:23:52;;;;;;;4.00;1.20;;;;;;;;;;8370891;28;20766;-60
2022/08/09 09:27:54;;;;;;;1.67;1.57;;;;;;;;;;8375559;28;20024;-60
2022/08/09 09:31:55;;;;;;;3.33;1.70;;;;;;;;;;8373785;28;20060;-60
2022/08/09 09:36:05;;;;;;;5.07;1.50;;;;;;;;;;8373536;28;20020;-60
2022/08/09 09:40:06;;;;;;;2.67;1.40;;;;;;;;;;8375425;28;20103;-60
2022/08/09 09:44:06;;;;;;;2.67;1.20;;;;;;;;;;8373225;28;20035;-60
2022/08/09 09:48:07;;;;;;;2.97;1.40;;;;;;;;;;8378684;28;20033;-60
2022/08/09 09:52:09;;;;;;;5.07;1.43;;;;;;;;;;8365071;28;20020;-60
2022/08/09 09:56:29;;;;;;;2.53;1.13;;;;;;;;;;8374596;28;20029;-60
2022/08/09 10:00:29;;;;;;;3.47;1.40;;;;;;;;;;8367278;28;20546;-61
2022/08/09 10:04:30;;;;;;;5.63;1.40;;;;;;;;;;8365880;28;20021;-60
2022/08/09 10:08:30;;;;;;;7.43;1.30;;;;;;;;;;8367490;28;20040;-60
2022/08/09 10:12:37;;;;;;;6.17;1.40;;;;;;;;;;8365089;28;20112;-60
2022/08/09 10:16:38;;;;;;;3.28;1.40;;;;;;;;;;8369256;28;20120;-60
2022/08/09 10:20:38;;;;;;;2.13;1.23;;;;;;;;;;8364637;28;20024;-60
2022/08/09 10:24:39;;;;;;;2.23;1.50;;;;;;;;;;8367022;28;20059;-60
2022/08/09 10:28:41;;;;;;;5.67;1.40;;;;;;;;;;8361791;28;20275;-60
2022/08/09 10:32:42;;;;;;;2.20;1.10;;;;;;;;;;8365260;28;20052;-60
2022/08/09 10:36:42;;;;;;;1.27;1.17;;;;;;;;;;8366839;28;20051;-60
2022/08/09 10:40:43;;;;;;;6.33;1.30;;;;;;;;;;8365901;28;20291;-60
2022/08/09 10:44:44;;;;;;;2.43;1.30;;;;;;;;;;8365939;28;20021;-60
2022/08/09 10:48:54;;;;;;;2.22;1.20;;;;;;;;;;8364552;28;20329;-60
2022/08/09 10:52:54;;;;;;;1.60;1.20;;;;;;;;;;8364403;28;20439;-60
2022/08/09 10:57:05;;;;;;;1.52;1.35;;;;;;;;;;8366180;28;20078;-60
2022/08/09 11:01:25;;;;;;;2.55;1.30;;;;;;;;;;8366921;28;20383;-60
2022/08/09 11:05:26;;;;;;;1.63;1.40;;;;;;;;;;8363557;28;20465;-60
2022/08/09 11:09:41;;;;;;;2.17;1.37;;;;;;;;;;8369371;28;20973;-60
2022/08/09 11:13:41;;;;;;;1.98;1.20;;;;;;;;;;8366027;28;20409;-60
2022/08/09 11:17:43;;;;;;;1.93;1.27;;;;;;;;;;8375008;28;20040;-60
2022/08/09 11:21:54;;;;;;;1.38;1.10;;;;;;;;;;8365230;28;20131;-61
2022/08/09 11:25:54;;;;;;;9.18;1.40;;;;;;;;;;8369552;28;20033;-60
2022/08/09 11:29:55;;;;;;;2.40;1.20;;;;;;;;;;8369250;28;20034;-60
2022/08/09 11:33:56;;;;;;;1.63;1.20;;;;;;;;;;8367124;28;20083;-61
2022/08/09 11:37:58;;;;;;;1.30;1.20;;;;;;;;;;8363070;28;20032;-60
2022/08/09 11:42:05;;;;;;;2.53;1.30;;;;;;;;;;8365379;28;20443;-60
2022/08/09 11:46:06;;;;;;;6.40;1.38;;;;;;;;;;8363057;28;20040;-62
2022/08/09 11:50:06;;;;;;;6.90;1.40;;;;;;;;;;8353123;28;20129;-63
2022/08/09 11:54:11;;;;;;;3.47;1.10;;;;;;;;;;8365532;28;20115;-61
2022/08/09 11:58:14;;;;;;;4.28;1.30;;;;;;;;;;8368138;28;20032;-60
2022/08/09 12:02:14;;;;;;;2.47;1.13;;;;;;;;;;8377569;28;20041;-61
2022/08/09 12:06:18;;;;;;;5.18;1.33;;;;;;;;;;8375801;28;20149;-60
2022/08/09 12:10:19;;;;;;;5.75;1.23;;;;;;;;;;8367595;28;20081;-60
2022/08/09 12:14:19;;;;;;;2.03;1.27;;;;;;;;;;8368342;28;20032;-60
2022/08/09 12:18:19;;;;;;;1.83;1.20;;;;;;;;;;8368657;28;20036;-60
2022/08/09 12:22:20;;;;;;;3.20;1.10;;;;;;;;;;8366566;28;20059;-60
2022/08/09 12:26:21;;;;;;;5.45;1.17;;;;;;;;;;8379842;28;20020;-61
2022/08/09 12:30:28;;;;;;;4.20;1.20;;;;;;;;;;8379368;28;20040;-61
2022/08/09 12:34:39;;;;;;;3.55;1.20;;;;;;;;;;8373027;28;20476;-61
2022/08/09 12:38:39;;;;;;;1.15;1.00;;;;;;;;;;8378071;28;20123;-62
2022/08/09 12:42:43;;;;;;;3.30;1.20;;;;;;;;;;8373664;28;20024;-60
2022/08/09 12:46:45;;;;;;;3.05;1.10;;;;;;;;;;8370810;28;20050;-60
2022/08/09 12:50:46;;;;;;;3.70;1.20;;;;;;;;;;8378526;28;20008;-61
2022/08/09 12:54:48;;;;;;;1.90;1.03;;;;;;;;;;8376781;28;20059;-61
2022/08/09 12:59:07;;;;;;;3.90;1.08;;;;;;;;;;8381195;28;20056;-61
2022/08/09 13:03:07;;;;;;;2.75;1.20;;;;;;;;;;8383554;28;20036;-61
2022/08/09 13:07:09;;;;;;;2.13;0.90;;;;;;;;;;8383348;28;20023;-61
2022/08/09 13:11:09;;;;;;;;;;;;;;;;;;8382353;28;20069;-60
2022/08/09 13:15:09;;;;;;;1.35;1.10;;;;;;;;;;8375868;28;20319;-61
2022/08/09 13:19:09;;;;;;;2.77;1.10;;;;;;;;;;8371598;28;20469;-60
2022/08/09 13:23:11;;;;;;;1.70;1.10;;;;;;;;;;8374486;28;20127;-60
2022/08/09 13:27:30;;;;;;;2.47;1.30;;;;;;;;;;8379168;28;20513;-60
2022/08/09 13:31:30;;;;;;;1.10;1.00;;;;;;;;;;8375898;28;20040;-60
2022/08/09 13:35:30;;;;;;;3.63;1.10;;;;;;;;;;8374798;28;20055;-60
2022/08/09 13:39:31;;;;;;;2.97;1.10;;;;;;;;;;8375672;28;20033;-60
2022/08/09 13:43:33;;;;;;;2.67;1.13;;;;;;;;;;8375902;28;20489;-60
2022/08/09 13:47:34;;;;;;;6.50;1.20;;;;;;;;;;8376387;28;20044;-60
2022/08/09 13:51:34;;;;;;;1.63;1.03;;;;;;;;;;8377601;28;20043;-60
2022/08/09 13:55:34;;;;;;;1.85;1.10;;;;;;;;;;8378126;28;20020;-60
2022/08/09 13:59:35;;;;;;;1.42;1.25;;;;;;;;;;8378980;28;20440;-60
2022/08/09 14:03:35;;;;;;;1.17;1.10;;;;;;;;;;8376218;28;20048;-60
2022/08/09 14:07:35;;;;;;;3.28;1.20;;;;;;;;;;8377184;28;20032;-60
2022/08/09 14:11:35;;;;;;;4.17;1.20;;;;;;;;;;8370854;28;20021;-60
2022/08/09 14:15:36;;;;;;;2.45;1.20;;;;;;;;;;8371143;28;20040;-60
2022/08/09 14:19:36;;;;;;;4.53;1.47;;;;;;;;;;8370575;28;20020;-60
2022/08/09 14:23:36;;;;;;;3.80;1.50;;;;;;;;;;8368331;28;20028;-60
2022/08/09 14:27:40;;;;;;;2.47;1.57;;;;;;;;;;8375495;28;20028;-60
2022/08/09 14:31:40;;;;;;;2.63;1.42;;;;;;;;;;8381296;28;20088;-60
2022/08/09 14:35:40;;;;;;;2.17;1.17;;;;;;;;;;8370562;28;20526;-60
2022/08/09 14:39:41;;;;;;;4.38;1.27;;;;;;;;;;8374161;28;20141;-60
2022/08/09 14:43:41;;;;;;;2.40;1.30;;;;;;;;;;8366776;28;20025;-60
2022/08/09 14:47:41;;;;;;;2.97;1.15;;;;;;;;;;8368511;28;20483;-60
2022/08/09 14:51:41;;;;;;;1.83;1.10;;;;;;;;;;8366702;28;20149;-60
2022/08/09 14:55:42;;;;;;;3.38;1.20;;;;;;;;;;8367864;28;20028;-60
2022/08/09 14:59:42;;;;;;;3.77;1.13;;;;;;;;;;8368706;28;20123;-61
2022/08/09 15:03:42;;;;;;;5.95;1.20;;;;;;;;;;8367413;28;20036;-60
2022/08/09 15:07:43;;;;;;;1.00;1.00;;;;;;;;;;8368874;28;20113;-60
2022/08/09 15:11:43;;;;;;;1.23;1.10;;;;;;;;;;8366008;28;20383;-60
2022/08/09 15:15:43;;;;;;;4.15;1.23;;;;;;;;;;8367296;28;20526;-61
2022/08/09 15:19:44;;;;;;;3.10;1.10;;;;;;;;;;8363458;28;20025;-60
2022/08/09 15:23:44;;;;;;;1.58;1.15;;;;;;;;;;8364126;28;20025;-60
2022/08/09 15:27:44;;;;;;;19.80;1.60;;;;;;;;;;8364719;28;20512;-61
2022/08/09 15:31:44;;;;;;;6.37;1.20;;;;;;;;;;8362969;28;20045;-60
2022/08/09 15:35:44;;;;;;;5.68;1.30;;;;;;;;;;8363200;28;20032;-60
2022/08/09 15:39:45;;;;;;;1.63;0.98;;;;;;;;;;8362476;28;20378;-60
2022/08/09 15:43:45;;;;;;;8.63;1.40;;;;;;;;;;8364777;28;20025;-61
2022/08/09 15:47:45;;;;;;;7.53;1.20;;;;;;;;;;8372665;28;20037;-60
2022/08/09 15:51:47;;;;;;;1.00;0.90;;;;;;;;;;8372020;28;20413;-60
2022/08/09 15:55:47;;;;;;;3.88;1.10;;;;;;;;;;8366068;28;20536;-60
2022/08/09 15:59:47;;;;;;;1.10;1.00;;;;;;;;;;8363654;28;20035;-60
2022/08/09 16:03:47;;;;;;;1.70;1.30;;;;;;;;;;8363054;28;20028;-60
2022/08/09 16:07:48;;;;;;;6.25;1.17;;;;;;;;;;8366932;28;20020;-60
2022/08/09 16:11:48;;;;;;;5.93;1.20;;;;;;;;;;8369161;28;20031;-60
2022/08/09 16:15:48;;;;;;;6.93;1.40;;;;;;;;;;8371999;28;20102;-60
2022/08/09 16:19:48;;;;;;;3.77;1.20;;;;;;;;;;8370478;28;20473;-60
2022/08/09 16:23:49;;;;;;;4.38;1.80;;;;;;;;;;8370361;28;20025;-60
2022/08/09 16:27:49;;;;;;;3.67;1.55;;;;;;;;;;8370005;28;20092;-60
2022/08/09 16:31:49;;;;;;;2.55;1.50;;;;;;;;;;8370075;28;20041;-60
2022/08/09 16:35:49;;;;;;;3.78;1.38;;;;;;;;;;8374831;28;20028;-60
2022/08/09 16:39:49;;;;;;;2.08;1.13;;;;;;;;;;8376622;28;20031;-60
2022/08/09 16:43:50;;;;;;;2.77;1.40;;;;;;;;;;8375819;28;20430;-60
2022/08/09 16:47:50;;;;;;;3.60;1.13;;;;;;;;;;8375801;28;20529;-60
2022/08/09 16:51:50;;;;;;;3.15;1.20;;;;;;;;;;8374251;28;20365;-59
2022/08/09 16:55:51;;;;;;;1.10;1.00;;;;;;;;;;8376042;28;20046;-60
2022/08/09 16:59:51;;;;;;;1.33;1.20;;;;;;;;;;8374576;28;20052;-59
2022/08/09 17:03:52;;;;;;;1.50;1.40;;;;;;;;;;8370482;28;20040;-60
2022/08/09 17:07:52;;;;;;;1.65;1.10;;;;;;;;;;8373102;28;20032;-60
2022/08/09 17:11:52;;;;;;;2.47;1.20;;;;;;;;;;8375316;28;20032;-60
2022/08/09 17:15:52;;;;;;;6.67;1.30;;;;;;;;;;8375064;28;20324;-60
2022/08/09 17:19:53;;;;;;;2.13;1.10;;;;;;;;;;8371123;28;20855;-60
2022/08/09 17:23:53;;;;;;;3.00;1.08;;;;;;;;;;8371201;28;20361;-60
2022/08/09 17:27:54;;;;;;;3.88;1.20;;;;;;;;;;8372157;28;20635;-60
2022/08/09 17:31:56;;;;;;;1.48;1.20;;;;;;;;;;8367884;28;20040;-59
2022/08/09 17:35:57;;;;;;;8.52;1.20;;;;;;;;;;8370699;28;20436;-60
2022/08/09 17:39:57;;;;;;;2.47;1.10;;;;;;;;;;8366506;28;20429;-60
2022/08/09 17:43:57;;;;;;;2.83;1.40;;;;;;;;;;8367067;28;20107;-59
2022/08/09 17:47:57;;;;;;;2.22;1.02;;;;;;;;;;8366548;28;20267;-59
2022/08/09 17:51:58;;;;;;;1.98;1.10;;;;;;;;;;8367849;28;20027;-60
2022/08/09 17:55:58;;;;;;;3.88;1.30;;;;;;;;;;8370171;28;20025;-59
2022/08/09 17:59:58;;;;;;;2.78;1.10;;;;;;;;;;8366363;28;20781;-60
2022/08/09 18:03:58;;;;;;;2.78;1.15;;;;;;;;;;8363814;28;20028;-59
2022/08/09 18:07:59;;;;;;;1.98;1.13;;;;;;;;;;8365814;28;20550;-59
2022/08/09 18:11:59;;;;;;;3.67;1.00;;;;;;;;;;8364468;28;20024;-59
2022/08/09 18:16:00;;;;;;;2.35;1.10;;;;;;;;;;8362481;28;20044;-60
2022/08/09 18:20:01;;;;;;;3.95;1.23;;;;;;;;;;8363003;28;20107;-59
2022/08/09 18:24:01;;;;;;;3.13;1.20;;;;;;;;;;8362746;28;20009;-60
2022/08/09 18:28:01;;;;;;;4.05;1.10;;;;;;;;;;8365757;28;20648;-59
2022/08/09 18:32:02;;;;;;;1.83;1.17;;;;;;;;;;8362487;28;20047;-59
2022/08/09 18:36:03;;;;;;;5.97;1.48;;;;;;;;;;8361807;28;20021;-60
2022/08/09 18:40:03;;;;;;;3.93;1.13;;;;;;;;;;8363153;28;20035;-59
2022/08/09 18:44:04;;;;;;;2.45;1.20;;;;;;;;;;8362115;28;20277;-59
2022/08/09 18:48:07;;;;;;;1.58;1.23;;;;;;;;;;8360895;28;20469;-59
2022/08/09 18:52:07;;;;;;;3.95;1.20;;;;;;;;;;8360905;28;20029;-59
2022/08/09 18:56:08;;;;;;;4.47;1.50;;;;;;;;;;8361064;28;20036;-59
2022/08/09 19:00:09;;;;;;;3.53;1.15;;;;;;;;;;8359056;28;20020;-60
2022/08/09 19:04:09;;;;;;;1.75;1.30;;;;;;;;;;8362388;28;20086;-59
2022/08/09 19:08:10;;;;;;;1.40;1.30;;;;;;;;;;8361355;28;20028;-60
2022/08/09 19:12:10;;;;;;;4.30;1.30;;;;;;;;;;8361234;28;20035;-59
2022/08/09 19:16:11;;;;;;;9.40;1.60;;;;;;;;;;8360668;28;20064;-59
2022/08/09 19:20:11;;;;;;;1.92;1.20;;;;;;;;;;8359462;28;20025;-60
2022/08/09 19:24:12;;;;;;;1.33;1.23;;;;;;;;;;8361770;28;20020;-59
2022/08/09 19:28:12;;;;;;;6.72;1.67;;;;;;;;;;8358981;28;20619;-59
2022/08/09 19:32:12;;;;;;;6.05;1.30;;;;;;;;;;8359894;28;20048;-59
2022/08/09 19:36:12;;;;;;;2.05;1.38;;;;;;;;;;8360368;28;20107;-59
2022/08/09 19:40:13;;;;;;;4.03;1.30;;;;;;;;;;8360429;28;20132;-59
2022/08/09 19:44:13;;;;;;;1.58;1.48;;;;;;;;;;8359687;28;20048;-59
2022/08/09 19:48:13;;;;;;;3.47;1.20;;;;;;;;;;8361322;28;20587;-59
2022/08/09 19:52:13;;;;;;;3.83;1.20;;;;;;;;;;8359469;28;20534;-59
2022/08/09 19:56:14;;;;;;;2.03;1.30;;;;;;;;;;8360236;28;20670;-59
2022/08/09 20:00:14;;;;;;;4.80;1.45;;;;;;;;;;8358202;28;20688;-60
2022/08/09 20:04:14;;;;;;;1.90;1.30;;;;;;;;;;8358487;28;20475;-59
2022/08/09 20:08:14;;;;;;;2.88;1.20;;;;;;;;;;8361179;28;20297;-60
2022/08/09 20:12:15;;;;;;;2.58;1.10;;;;;;;;;;8363820;28;20026;-59
2022/08/09 20:16:15;;;;;;;3.10;1.50;;;;;;;;;;8363432;28;20125;-59
2022/08/09 20:20:16;;;;;;;2.38;1.52;;;;;;;;;;8361897;28;20584;-59
2022/08/09 20:24:17;;;;;;;2.75;1.50;;;;;;;;;;8361037;28;20240;-59
2022/08/09 20:28:17;;;;;;;1.90;1.35;;;;;;;;;;8363016;28;20496;-59
2022/08/09 20:32:17;;;;;;;2.00;1.30;;;;;;;;;;8363675;28;20150;-59
2022/08/09 20:36:18;;;;;;;6.57;1.40;;;;;;;;;;8365332;28;20024;-59
2022/08/09 20:40:18;;;;;;;2.97;1.70;;;;;;;;;;8362838;28;20343;-59
2022/08/09 20:44:18;;;;;;;1.60;1.40;;;;;;;;;;8359609;28;20120;-59
2022/08/09 20:48:19;;;;;;;2.95;1.30;;;;;;;;;;8368158;28;20036;-59
2022/08/09 20:52:19;;;;;;;3.70;1.48;;;;;;;;;;8367406;28;20037;-59
2022/08/09 20:56:19;;;;;;;1.75;1.40;;;;;;;;;;8367389;28;20024;-59
2022/08/09 21:00:19;;;;;;;2.63;1.40;;;;;;;;;;8365142;28;20029;-60
2022/08/09 21:04:20;;;;;;;4.22;1.38;;;;;;;;;;8362549;28;20024;-59
2022/08/09 21:08:20;;;;;;;3.15;1.52;;;;;;;;;;8363186;28;20374;-58
2022/08/09 21:12:21;;;;;;;2.05;1.30;;;;;;;;;;8368545;28;20016;-59
2022/08/09 21:16:21;;;;;;;4.28;1.77;;;;;;;;;;8370860;28;20041;-59
2022/08/09 21:20:22;;;;;;;2.95;1.48;;;;;;;;;;8365758;28;20082;-59
2022/08/09 21:24:23;;;;;;;2.63;1.35;;;;;;;;;;8370108;28;20051;-59
2022/08/09 21:28:24;;;;;;;2.63;1.60;;;;;;;;;;8367173;28;20122;-59
2022/08/09 21:32:25;;;;;;;2.05;1.40;;;;;;;;;;8372034;28;20040;-58
2022/08/09 21:36:26;;;;;;;2.20;1.50;;;;;;;;;;8377167;28;20061;-59
2022/08/09 21:40:26;;;;;;;2.83;1.43;;;;;;;;;;8374954;28;20059;-59
2022/08/09 21:44:26;;;;;;;3.80;1.45;;;;;;;;;;8372236;28;20028;-59
2022/08/09 21:48:26;;;;;;;3.00;1.70;;;;;;;;;;8373632;28;20423;-59
2022/08/09 21:52:27;;;;;;;3.20;1.55;;;;;;;;;;8376535;28;20653;-58
2022/08/09 21:56:27;;;;;;;6.78;1.90;;;;;;;;;;8377327;28;20039;-59
2022/08/09 22:00:31;;;;;;;2.55;1.70;;;;;;;;;;8366862;28;20044;-60
2022/08/09 22:04:31;;;;;;;2.85;1.55;;;;;;;;;;8375535;28;20481;-58
2022/08/09 22:08:33;;;;;;;3.00;1.50;;;;;;;;;;8379944;28;20016;-59
2022/08/09 22:12:33;;;;;;;4.20;1.35;;;;;;;;;;8381473;28;20263;-58
2022/08/09 22:16:33;;;;;;;1.98;1.77;;;;;;;;;;8380166;28;20033;-58
2022/08/09 22:20:33;;;;;;;2.75;1.45;;;;;;;;;;8377753;28;21123;-58
2022/08/09 22:24:34;;;;;;;2.05;1.60;;;;;;;;;;8378542;28;20135;-58
2022/08/09 22:28:34;;;;;;;4.13;1.65;;;;;;;;;;8377602;28;20097;-59
2022/08/09 22:32:34;;;;;;;3.53;1.80;;;;;;;;;;8375327;28;20040;-58
2022/08/09 22:36:34;;;;;;;2.73;1.50;;;;;;;;;;8376127;28;20036;-58
2022/08/09 22:40:34;;;;;;;3.60;1.63;;;;;;;;;;8377080;28;20282;-58
2022/08/09 22:44:35;;;;;;;2.40;1.58;;;;;;;;;;8378918;28;20029;-58
2022/08/09 22:48:35;;;;;;;5.35;1.60;;;;;;;;;;8375566;28;20058;-58
2022/08/09 22:52:35;;;;;;;1.88;1.63;;;;;;;;;;8376572;28;20036;-58
2022/08/09 22:56:35;;;;;;;2.95;1.63;;;;;;;;;;8374985;28;20036;-58
2022/08/09 23:00:35;;;;;;;2.05;1.48;;;;;;;;;;8373979;28;20444;-58
2022/08/09 23:04:39;;;;;;;1.77;1.60;;;;;;;;;;8377204;28;20435;-58
2022/08/09 23:08:45;;;;;;;;;;;;;;;;;;8378796;28;20020;-58
2022/08/09 23:12:46;;;;;;;4.00;1.50;;;;;;;;;;8376600;28;20316;-58
2022/08/09 23:16:46;;;;;;;2.77;1.57;;;;;;;;;;8380508;28;20105;-58
2022/08/09 23:20:46;;;;;;;2.28;1.50;;;;;;;;;;8377259;28;20028;-58
2022/08/09 23:24:46;;;;;;;2.90;1.50;;;;;;;;;;8377667;28;20028;-58
2022/08/09 23:28:47;;;;;;;3.28;1.50;;;;;;;;;;8378749;28;20529;-58
2022/08/09 23:32:47;;;;;;;3.38;1.80;;;;;;;;;;8373426;28;20052;-58
2022/08/09 23:36:47;;;;;;;2.92;1.60;;;;;;;;;;8375316;28;20391;-58
2022/08/09 23:40:51;;;;;;;2.20;1.50;;;;;;;;;;8375826;28;20032;-57
2022/08/09 23:44:51;;;;;;;3.45;1.58;;;;;;;;;;8374083;28;20374;-58
2022/08/09 23:48:51;;;;;;;1.92;1.60;;;;;;;;;;8375764;28;20100;-58
2022/08/09 23:52:52;;;;;;;11.85;1.70;;;;;;;;;;8377845;28;20115;-58
2022/08/09 23:56:52;;;;;;;1.58;1.30;;;;;;;;;;8377655;28;20195;-58
